Time;durP1;ratioP1;P1;durP2;ratioP2;P2;SDS_P1;SDS_P2;PMS_P1;PMS_P2;Temp;Humidity;BMP_temperature;BMP_pressure;BME280_temperature;BME280_humidity;BME280_pressure;Samples;Min_cycle;Max_cycle;Signal;HPM_P1;HPM_P2
2023/06/24 00:01:14;;;;;;;5.23;3.77;;;;;;;15.02;89.39;99491.13;4921305;29;20567;-64
2023/06/24 00:03:47;;;;;;;5.20;3.70;;;;;;;15.00;89.77;99493.91;4922602;28;20293;-64
2023/06/24 00:06:18;;;;;;;4.90;4.03;;;;;;;14.97;89.39;99496.84;4923100;28;20226;-64
2023/06/24 00:08:44;;;;;;;4.13;3.47;;;;;;;15.01;87.93;99499.97;4920403;28;20241;-65
2023/06/24 00:11:11;;;;;;;5.43;3.83;;;;;;;15.10;86.65;99503.47;4922743;28;20799;-64
2023/06/24 00:13:38;;;;;;;10.53;3.90;;;;;;;15.16;86.12;99492.31;4921571;28;20226;-63
2023/06/24 00:16:06;;;;;;;5.60;3.53;;;;;;;15.14;87.01;99503.00;4920393;28;20235;-63
2023/06/24 00:18:33;;;;;;;5.67;3.47;;;;;;;15.09;87.70;99499.22;4919889;28;20233;-63
2023/06/24 00:21:01;;;;;;;7.03;3.83;;;;;;;15.11;89.53;99498.06;4930650;28;20246;-63
2023/06/24 00:23:34;;;;;;;5.47;4.03;;;;;;;15.14;89.65;99495.09;4922922;28;20230;-63
2023/06/24 00:26:00;;;;;;;5.13;4.00;;;;;;;15.11;88.59;99492.78;4930024;29;20681;-63
2023/06/24 00:28:28;;;;;;;6.57;4.47;;;;;;;15.14;89.93;99479.31;4923165;28;20296;-63
2023/06/24 00:30:55;;;;;;;4.77;4.17;;;;;;;15.10;92.08;99493.78;4926485;29;20318;-63
2023/06/24 00:33:46;;;;;;;8.33;4.20;;;;;;;15.02;91.49;99485.84;4923084;28;20590;-63
2023/06/24 00:36:14;;;;;;;7.10;3.93;;;;;;;15.02;89.74;99491.94;4928479;29;20243;-63
2023/06/24 00:38:41;;;;;;;4.80;4.27;;;;;;;15.02;91.74;99496.38;4925104;28;20251;-63
2023/06/24 00:41:08;;;;;;;7.90;4.20;;;;;;;14.93;91.89;99497.31;4919624;29;20249;-63
2023/06/24 00:43:35;;;;;;;6.13;4.50;;;;;;;14.95;92.16;99490.94;4923196;29;20245;-64
2023/06/24 00:46:02;;;;;;;7.30;3.93;;;;;;;14.97;92.85;99488.13;4928004;29;20234;-64
2023/06/24 00:48:31;;;;;;;7.80;5.50;;;;;;;14.91;93.38;99484.34;4920374;29;20222;-64
2023/06/24 00:50:58;;;;;;;6.30;4.23;;;;;;;14.88;92.67;99482.84;4944908;28;20235;-64
2023/06/24 00:53:30;;;;;;;5.23;4.33;;;;;;;14.84;92.87;99486.75;4941145;28;20302;-64
2023/06/24 00:56:02;;;;;;;7.03;4.40;;;;;;;14.82;92.68;99488.75;4926655;29;20302;-63
2023/06/24 00:58:30;;;;;;;6.13;4.80;;;;;;;14.74;94.71;99489.53;4909790;29;20227;-63
2023/06/24 01:00:58;;;;;;;6.40;4.27;;;;;;;14.70;95.40;99488.19;4925539;28;20315;-64
2023/06/24 01:03:29;;;;;;;5.80;4.60;;;;;;;14.70;96.60;99495.25;4938857;28;20240;-64
2023/06/24 01:05:56;;;;;;;10.03;4.80;;;;;;;14.63;94.49;99484.50;4926817;29;20283;-64
2023/06/24 01:08:30;;;;;;;5.60;4.50;;;;;;;14.69;96.65;99491.78;4927093;28;20227;-63
2023/06/24 01:10:56;;;;;;;5.10;4.60;;;;;;;14.67;93.82;99498.16;4945998;28;20900;-63
2023/06/24 01:13:28;;;;;;;5.90;4.27;;;;;;;14.68;93.55;99495.38;4921279;29;20299;-64
2023/06/24 01:15:55;;;;;;;6.60;4.57;;;;;;;14.68;92.91;99495.38;4939956;28;20246;-63
2023/06/24 01:18:50;;;;;;;5.40;4.73;;;;;;;14.67;93.88;99490.28;4927662;28;20229;-63
2023/06/24 01:21:24;;;;;;;9.33;4.80;;;;;;;14.67;93.10;99490.28;4934157;29;20242;-64
2023/06/24 01:24:18;;;;;;;5.77;5.00;;;;;;;14.66;95.81;99491.25;4927054;29;20231;-63
2023/06/24 01:27:10;;;;;;;8.37;4.87;;;;;;;14.53;96.24;99481.16;4932554;28;20578;-63
2023/06/24 01:30:11;;;;;;;8.43;5.40;;;;;;;14.56;98.41;99492.19;4925662;28;20232;-63
2023/06/24 01:32:45;;;;;;;5.83;4.87;;;;;;;14.54;99.66;99488.06;4924759;28;20257;-63
2023/06/24 01:35:16;;;;;;;12.20;5.23;;;;;;;14.53;99.00;99482.00;4930566;29;20242;-63
2023/06/24 01:37:47;;;;;;;7.23;4.87;;;;;;;14.46;98.64;99481.78;4920527;28;20236;-64
2023/06/24 01:40:20;;;;;;;6.87;4.50;;;;;;;14.44;98.87;99482.91;4927054;28;20223;-63
2023/06/24 01:42:49;;;;;;;6.57;5.13;;;;;;;14.40;98.97;99479.75;4944226;28;20231;-63
2023/06/24 01:45:22;;;;;;;5.00;4.33;;;;;;;14.38;98.19;99484.34;4929165;28;20231;-64
2023/06/24 01:47:58;;;;;;;5.73;4.33;;;;;;;14.42;99.11;99482.25;4920459;29;20239;-63
2023/06/24 01:50:26;;;;;;;7.37;4.63;;;;;;;14.44;96.99;99482.91;4928310;28;20284;-63
2023/06/24 01:52:55;;;;;;;7.13;4.80;;;;;;;14.39;97.92;99479.94;4931806;29;20756;-63
2023/06/24 01:55:24;;;;;;;8.33;4.70;;;;;;;14.43;97.39;99482.09;4925976;29;20230;-63
2023/06/24 01:57:53;;;;;;;10.43;5.10;;;;;;;14.39;98.66;99480.75;4926592;29;20242;-63
2023/06/24 02:00:22;;;;;;;5.77;5.13;;;;;;;14.40;97.83;99481.59;4944713;28;20242;-63
2023/06/24 02:02:51;;;;;;;7.03;4.93;;;;;;;14.39;97.94;99474.69;4931183;28;20246;-63
2023/06/24 02:05:19;;;;;;;8.90;4.93;;;;;;;14.40;99.40;99477.13;4932439;29;20235;-63
2023/06/24 02:07:47;;;;;;;7.20;5.50;;;;;;;14.31;97.35;99472.81;4930173;29;20289;-63
2023/06/24 02:10:15;;;;;;;6.30;4.87;;;;;;;14.36;99.10;99475.00;4942561;28;20240;-63
2023/06/24 02:12:42;;;;;;;5.93;5.07;;;;;;;14.28;98.55;99478.41;4927294;29;20277;-63
2023/06/24 02:15:11;;;;;;;5.23;4.73;;;;;;;14.23;97.30;99478.03;4933594;29;20774;-63
2023/06/24 02:17:40;;;;;;;9.40;4.53;;;;;;;14.23;99.64;99478.84;4926471;28;20236;-63
2023/06/24 02:20:11;;;;;;;6.60;5.10;;;;;;;14.16;99.94;99475.19;4927080;29;20618;-63
2023/06/24 02:22:39;;;;;;;6.90;4.83;;;;;;;14.19;99.17;99482.75;4938860;28;20226;-63
2023/06/24 02:25:08;;;;;;;7.20;4.97;;;;;;;14.22;99.58;99484.25;4930750;28;20304;-63
2023/06/24 02:27:35;;;;;;;10.03;5.33;;;;;;;14.25;100.00;99476.88;4920966;29;20227;-63
2023/06/24 02:30:03;;;;;;;7.03;5.23;;;;;;;14.14;100.00;99479.75;4930363;29;20643;-63
2023/06/24 02:32:30;;;;;;;6.47;4.73;;;;;;;14.13;100.00;99471.06;4923121;29;20235;-63
2023/06/24 02:34:58;;;;;;;9.53;4.97;;;;;;;14.19;100.00;99480.13;4925741;29;20559;-63
2023/06/24 02:37:26;;;;;;;6.27;5.10;;;;;;;14.13;100.00;99476.31;4928078;28;20228;-63
2023/06/24 02:39:52;;;;;;;5.30;4.80;;;;;;;14.17;100.00;99471.56;4928005;28;20320;-63
2023/06/24 02:42:19;;;;;;;7.77;4.93;;;;;;;14.08;100.00;99467.25;4926859;29;20236;-63
2023/06/24 02:44:46;;;;;;;10.17;5.30;;;;;;;14.11;100.00;99478.28;4933722;29;20285;-63
2023/06/24 02:47:14;;;;;;;7.00;5.20;;;;;;;14.06;100.00;99482.31;4929700;29;20227;-63
2023/06/24 02:49:46;;;;;;;5.50;4.97;;;;;;;14.06;100.00;99477.06;4936866;28;20257;-63
2023/06/24 02:52:15;;;;;;;9.63;5.30;;;;;;;14.07;100.00;99491.84;4929047;28;20246;-63
2023/06/24 02:54:43;;;;;;;7.03;5.27;;;;;;;14.00;100.00;99481.13;4929802;29;20242;-63
2023/06/24 02:57:40;;;;;;;5.13;4.63;;;;;;;13.98;100.00;99472.59;4938418;28;20618;-63
2023/06/24 03:00:25;;;;;;;7.03;5.93;;;;;;;13.95;100.00;99471.06;4931869;28;20234;-63
2023/06/24 03:03:18;;;;;;;6.97;5.47;;;;;;;14.06;100.00;99479.69;4919672;29;20231;-63
2023/06/24 03:05:54;;;;;;;5.83;4.97;;;;;;;14.00;100.00;99481.13;4930004;29;20260;-63
2023/06/24 03:08:22;;;;;;;6.17;5.03;;;;;;;13.91;100.00;99476.78;4923948;28;20223;-63
2023/06/24 03:10:55;;;;;;;6.40;5.50;;;;;;;13.87;100.00;99484.13;4926129;29;20241;-63
2023/06/24 03:13:28;;;;;;;8.20;5.70;;;;;;;13.94;100.00;99485.19;4926883;28;20239;-63
2023/06/24 03:16:04;;;;;;;8.00;4.83;;;;;;;13.95;100.00;99489.44;4927569;29;20322;-63
2023/06/24 03:18:38;;;;;;;9.87;5.27;;;;;;;13.94;100.00;99485.19;4916499;28;20288;-63
2023/06/24 03:21:05;;;;;;;9.27;5.90;;;;;;;13.85;100.00;99486.09;4926799;29;20238;-63
2023/06/24 03:23:33;;;;;;;7.37;6.00;;;;;;;13.83;100.00;99481.00;4926797;28;20229;-63
2023/06/24 03:26:02;;;;;;;6.20;5.37;;;;;;;13.91;100.00;99482.84;4926041;29;20734;-63
2023/06/24 03:28:30;;;;;;;8.77;5.47;;;;;;;13.90;100.00;99493.53;4917676;29;20252;-63
2023/06/24 03:31:07;;;;;;;5.73;5.13;;;;;;;13.86;100.00;99491.19;5135859;23;20308;-64
2023/06/24 03:33:34;;;;;;;5.83;5.03;;;;;;;13.83;100.00;99494.13;4920684;28;20370;-64
2023/06/24 03:36:01;;;;;;;6.70;5.00;;;;;;;13.88;100.00;99497.13;4939619;28;20227;-64
2023/06/24 03:38:31;;;;;;;9.37;5.30;;;;;;;13.90;100.00;99496.94;4939580;28;20232;-64
2023/06/24 03:40:58;;;;;;;7.20;5.53;;;;;;;13.83;100.00;99495.91;4943598;28;20261;-64
2023/06/24 03:43:30;;;;;;;7.83;6.27;;;;;;;13.85;100.00;99496.56;4937175;28;20239;-64
2023/06/24 03:45:57;;;;;;;9.50;5.97;;;;;;;13.90;100.00;99501.38;4943475;28;20241;-64
2023/06/24 03:48:29;;;;;;;9.30;5.83;;;;;;;13.92;100.00;99497.63;4933240;28;20233;-64
2023/06/24 03:50:56;;;;;;;6.63;5.37;;;;;;;13.90;100.00;99499.56;4941298;28;20238;-64
2023/06/24 03:53:30;;;;;;;7.77;5.77;;;;;;;13.93;100.00;99496.66;4949523;28;20607;-64
2023/06/24 03:55:56;;;;;;;6.63;5.23;;;;;;;14.03;100.00;99502.66;4941275;28;20236;-64
2023/06/24 03:58:30;;;;;;;10.20;5.53;;;;;;;14.09;100.00;99506.47;4938954;28;20236;-64
2023/06/24 04:00:59;;;;;;;6.10;5.40;;;;;;;14.11;100.00;99507.16;4941017;28;20241;-64
2023/06/24 04:03:29;;;;;;;8.70;6.10;;;;;;;14.16;100.00;99510.16;4949095;28;20227;-64
2023/06/24 04:05:56;;;;;;;7.70;5.63;;;;;;;14.19;100.00;99516.06;4941109;28;20238;-64
2023/06/24 04:08:29;;;;;;;7.43;5.33;;;;;;;14.21;99.86;99514.13;4938223;28;20589;-64
2023/06/24 04:10:56;;;;;;;6.80;5.07;;;;;;;14.28;100.00;99518.59;4941799;28;20321;-64
2023/06/24 04:13:27;;;;;;;7.70;4.77;;;;;;;14.38;99.55;99521.13;4928273;28;20225;-64
2023/06/24 04:15:55;;;;;;;5.30;4.80;;;;;;;14.36;99.97;99519.63;4944333;28;20664;-64
2023/06/24 04:18:21;;;;;;;7.13;5.00;;;;;;;14.37;98.72;99516.84;4935137;28;20232;-63
2023/06/24 04:20:48;;;;;;;8.40;5.20;;;;;;;14.44;100.00;99520.50;4940879;28;20235;-63
2023/06/24 04:23:15;;;;;;;5.90;5.17;;;;;;;14.42;100.00;99519.84;4942327;28;20240;-64
2023/06/24 04:25:42;;;;;;;8.23;5.10;;;;;;;14.38;100.00;99521.13;4937277;28;20238;-63
2023/06/24 04:28:08;;;;;;;6.97;5.27;;;;;;;14.47;100.00;99524.63;4941263;29;20226;-63
2023/06/24 04:30:38;;;;;;;6.73;5.00;;;;;;;14.48;100.00;99521.03;4932622;28;20321;-63
2023/06/24 04:33:06;;;;;;;6.17;5.00;;;;;;;14.47;100.00;99527.28;4938394;28;20549;-63
2023/06/24 04:35:33;;;;;;;7.43;5.67;;;;;;;14.52;100.00;99527.63;4932698;28;20223;-63
2023/06/24 04:38:00;;;;;;;7.30;5.63;;;;;;;14.58;99.01;99532.28;4938331;29;20264;-63
2023/06/24 04:40:27;;;;;;;8.47;5.27;;;;;;;14.71;100.00;99531.88;4933639;28;20226;-63
2023/06/24 04:42:53;;;;;;;7.50;5.33;;;;;;;14.75;100.00;99532.41;4939938;28;20764;-63
2023/06/24 04:45:20;;;;;;;9.73;5.00;;;;;;;14.79;100.00;99539.00;4940844;28;20237;-63
2023/06/24 04:47:47;;;;;;;7.60;5.70;;;;;;;14.84;100.00;99533.25;4941342;28;20747;-63
2023/06/24 04:50:15;;;;;;;6.77;5.20;;;;;;;14.93;100.00;99540.22;4941046;28;20233;-63
2023/06/24 04:52:42;;;;;;;7.20;4.83;;;;;;;14.98;100.00;99537.09;4939505;28;20293;-63
2023/06/24 04:55:09;;;;;;;6.83;5.23;;;;;;;15.02;100.00;99538.44;4945414;28;20234;-63
2023/06/24 04:57:36;;;;;;;7.10;5.50;;;;;;;15.09;99.51;99538.66;4942403;28;20577;-63
2023/06/24 05:00:04;;;;;;;6.23;5.30;;;;;;;15.17;99.98;99536.88;4943935;28;20237;-64
2023/06/24 05:02:30;;;;;;;5.37;4.87;;;;;;;15.22;99.46;99531.16;4944535;28;20225;-64
2023/06/24 05:04:57;;;;;;;6.23;5.33;;;;;;;15.27;98.97;99535.91;4946530;28;20289;-64
2023/06/24 05:07:25;;;;;;;6.10;4.90;;;;;;;15.32;98.01;99539.72;4941811;28;20595;-64
2023/06/24 05:09:52;;;;;;;7.23;4.80;;;;;;;15.35;97.90;99541.22;4946741;28;20701;-64
2023/06/24 05:12:18;;;;;;;6.30;5.23;;;;;;;15.39;98.09;99539.06;4947394;28;20297;-64
2023/06/24 05:14:45;;;;;;;5.70;4.90;;;;;;;15.45;98.79;99538.44;4939748;28;20235;-64
2023/06/24 05:17:11;;;;;;;5.80;4.70;;;;;;;15.55;99.92;99541.75;4944514;28;20298;-64
2023/06/24 05:19:38;;;;;;;8.53;5.20;;;;;;;15.71;100.00;99555.94;4943938;28;20768;-64
2023/06/24 05:22:05;;;;;;;5.83;4.70;;;;;;;15.74;100.00;99556.44;4946864;28;20286;-64
2023/06/24 05:24:32;;;;;;;9.90;5.70;;;;;;;15.73;98.21;99556.59;4943466;28;20290;-64
2023/06/24 05:27:05;;;;;;;11.33;5.60;;;;;;;15.79;98.06;99562.06;4945538;28;20238;-64
2023/06/24 05:29:31;;;;;;;6.83;4.90;;;;;;;15.85;98.22;99565.03;4940441;28;20230;-64
2023/06/24 05:31:58;;;;;;;6.40;4.83;;;;;;;15.90;98.63;99568.84;4945488;28;20238;-64
2023/06/24 05:34:25;;;;;;;7.23;5.20;;;;;;;15.98;96.91;99573.28;4941977;28;20254;-64
2023/06/24 05:36:51;;;;;;;6.73;5.23;;;;;;;16.06;95.46;99572.47;4946024;28;20226;-64
2023/06/24 05:39:18;;;;;;;5.50;4.90;;;;;;;16.16;95.22;99567.03;4943649;28;20230;-64
2023/06/24 05:41:48;;;;;;;6.35;5.57;;;;;;;16.46;95.94;99568.19;4943911;28;20435;-64
2023/06/24 05:44:14;;;;;;;7.20;5.40;;;;;;;16.93;95.54;99573.72;4946340;28;20236;-64
2023/06/24 05:46:41;;;;;;;7.87;5.47;;;;;;;17.37;94.05;99577.72;4942819;28;20229;-64
2023/06/24 05:49:07;;;;;;;8.43;5.37;;;;;;;17.61;91.09;99576.78;4944724;28;20232;-64
2023/06/24 05:51:34;;;;;;;5.70;4.97;;;;;;;17.79;89.08;99568.59;4938944;28;20246;-64
2023/06/24 05:54:00;;;;;;;7.07;5.30;;;;;;;17.93;88.08;99574.13;4944020;28;20248;-64
2023/06/24 05:56:27;;;;;;;6.77;4.83;;;;;;;18.04;87.33;99580.84;4941699;28;20272;-64
2023/06/24 05:58:55;;;;;;;5.97;4.53;;;;;;;18.12;86.04;99575.50;4942851;28;20688;-64
2023/06/24 06:01:21;;;;;;;7.37;4.60;;;;;;;18.23;85.57;99576.91;4944228;28;20925;-64
2023/06/24 06:03:48;;;;;;;5.20;4.67;;;;;;;18.37;85.03;99580.59;4941902;28;20888;-64
2023/06/24 06:06:14;;;;;;;5.17;4.67;;;;;;;18.45;84.51;99577.91;4945957;28;20307;-64
2023/06/24 06:08:41;;;;;;;4.47;3.90;;;;;;;18.54;84.44;99581.28;4942756;28;20785;-64
2023/06/24 06:11:08;;;;;;;6.33;5.00;;;;;;;18.62;81.47;99583.84;4943882;28;20248;-64
2023/06/24 06:13:34;;;;;;;7.20;4.80;;;;;;;18.72;83.21;99589.69;4941852;28;20234;-64
2023/06/24 06:16:02;;;;;;;7.33;4.50;;;;;;;18.83;83.73;99590.25;4944498;28;20247;-64
2023/06/24 06:18:29;;;;;;;5.90;4.83;;;;;;;18.95;82.12;99594.09;4937302;28;20230;-64
2023/06/24 06:20:55;;;;;;;6.17;4.47;;;;;;;19.03;80.93;99586.13;4945900;28;20241;-64
2023/06/24 06:23:28;;;;;;;6.53;4.53;;;;;;;19.08;78.42;99587.38;4939526;28;20268;-64
2023/06/24 06:25:56;;;;;;;8.80;5.40;;;;;;;19.14;76.52;99589.28;4944620;28;20581;-64
2023/06/24 06:28:48;;;;;;;5.53;5.00;;;;;;;19.13;78.32;99592.94;4940660;28;20302;-64
2023/06/24 06:31:16;;;;;;;6.03;5.33;;;;;;;19.23;78.08;99590.03;4938797;28;20324;-64
2023/06/24 06:33:43;;;;;;;8.20;5.20;;;;;;;19.33;78.78;99591.38;4940126;28;20268;-64
2023/06/24 06:36:09;;;;;;;6.77;4.87;;;;;;;19.52;78.37;99596.28;4941277;28;20248;-64
2023/06/24 06:38:36;;;;;;;10.10;5.07;;;;;;;19.63;78.32;99593.13;4938166;28;20251;-64
2023/06/24 06:41:02;;;;;;;6.83;5.97;;;;;;;19.52;74.37;99591.00;4944617;28;20299;-64
2023/06/24 06:43:29;;;;;;;9.50;5.47;;;;;;;19.69;75.80;99589.75;4940167;28;20796;-64
2023/06/24 06:45:56;;;;;;;7.27;5.33;;;;;;;19.72;74.87;99588.56;4943905;28;20238;-64
2023/06/24 06:48:30;;;;;;;6.03;5.10;;;;;;;19.86;78.52;99589.50;4933602;28;20215;-64
2023/06/24 06:50:58;;;;;;;12.53;5.47;;;;;;;19.96;74.53;99587.41;4944827;28;20244;-64
2023/06/24 06:53:28;;;;;;;5.07;4.37;;;;;;;20.09;73.86;99586.75;4939440;28;20355;-64
2023/06/24 06:55:55;;;;;;;5.97;4.73;;;;;;;20.29;76.90;99592.22;4944801;28;20242;-64
2023/06/24 06:58:46;;;;;;;5.47;4.90;;;;;;;20.42;71.19;99588.84;4938735;28;20383;-64
2023/06/24 07:01:13;;;;;;;7.33;5.00;;;;;;;20.37;73.08;99587.78;4942582;28;20761;-64
2023/06/24 07:03:44;;;;;;;5.87;4.47;;;;;;;20.33;72.36;99588.16;4940192;28;20242;-64
2023/06/24 07:06:10;;;;;;;8.03;5.07;;;;;;;20.32;74.30;99580.38;4942206;28;20810;-64
2023/06/24 07:08:37;;;;;;;5.47;4.63;;;;;;;20.46;66.32;99582.13;4938949;28;20230;-64
2023/06/24 07:11:04;;;;;;;7.53;4.80;;;;;;;20.54;70.08;99585.66;4943284;28;20769;-64
2023/06/24 07:13:30;;;;;;;6.57;5.10;;;;;;;20.66;68.35;99581.47;4939353;28;20226;-64
2023/06/24 07:15:57;;;;;;;5.67;5.07;;;;;;;20.89;67.38;99577.78;4940560;29;20833;-64
2023/06/24 07:18:30;;;;;;;7.33;5.30;;;;;;;20.89;64.40;99578.59;4941412;28;20224;-64
2023/06/24 07:21:00;;;;;;;6.80;5.20;;;;;;;20.91;64.92;99575.75;4943347;28;20252;-64
2023/06/24 07:23:28;;;;;;;6.07;5.00;;;;;;;20.98;64.83;99579.25;4939708;28;20240;-64
2023/06/24 07:25:55;;;;;;;7.63;5.23;;;;;;;21.03;64.86;99579.50;4946613;28;20898;-64
2023/06/24 07:28:25;;;;;;;5.87;4.87;;;;;;;21.07;63.75;99577.25;4936061;28;20731;-64
2023/06/24 07:30:52;;;;;;;9.90;5.70;;;;;;;21.07;62.68;99569.28;4940870;28;20627;-64
2023/06/24 07:33:18;;;;;;;6.20;5.17;;;;;;;21.15;64.13;99574.44;4938554;29;20668;-64
2023/06/24 07:35:45;;;;;;;6.17;4.70;;;;;;;21.34;63.75;99580.03;4940926;28;20237;-64
2023/06/24 07:38:14;;;;;;;10.77;6.10;;;;;;;21.16;63.06;99577.94;4943216;28;20276;-64
2023/06/24 07:40:40;;;;;;;9.07;5.53;;;;;;;21.06;64.39;99578.28;4939661;28;20285;-65
2023/06/24 07:43:07;;;;;;;7.53;5.00;;;;;;;21.33;65.01;99576.56;4940191;28;20236;-65
2023/06/24 07:45:34;;;;;;;7.17;5.40;;;;;;;21.48;62.83;99575.59;4937334;28;20233;-64
2023/06/24 07:48:00;;;;;;;7.10;5.73;;;;;;;21.46;63.28;99580.28;4939481;28;20581;-64
2023/06/24 07:50:27;;;;;;;6.43;5.63;;;;;;;21.50;63.53;99577.03;4938670;28;20221;-64
2023/06/24 07:52:53;;;;;;;8.60;5.27;;;;;;;21.49;64.54;99588.69;4943394;28;20229;-64
2023/06/24 07:55:21;;;;;;;6.97;5.50;;;;;;;21.45;62.30;99578.66;4942540;28;20315;-64
2023/06/24 07:57:48;;;;;;;7.40;5.03;;;;;;;21.62;62.51;99572.00;4937304;28;20231;-64
2023/06/24 08:00:15;;;;;;;7.13;5.53;;;;;;;21.62;61.25;99579.13;4944666;28;20241;-64
2023/06/24 08:02:43;;;;;;;7.27;5.47;;;;;;;21.63;61.85;99575.47;4938321;28;20328;-64
2023/06/24 08:05:10;;;;;;;6.67;4.93;;;;;;;21.72;63.73;99573.44;4940075;28;20245;-64
2023/06/24 08:07:37;;;;;;;8.00;5.37;;;;;;;21.88;62.27;99581.06;4939261;28;20723;-64
2023/06/24 08:10:05;;;;;;;6.63;5.10;;;;;;;21.89;62.83;99577.38;4941914;28;20647;-64
2023/06/24 08:12:33;;;;;;;11.33;6.13;;;;;;;21.90;62.83;99575.53;4941559;28;20391;-64
2023/06/24 08:14:59;;;;;;;8.23;5.80;;;;;;;21.91;62.45;99572.69;4940814;28;20287;-64
2023/06/24 08:17:26;;;;;;;10.47;6.00;;;;;;;21.96;60.74;99572.06;4936386;28;20586;-64
2023/06/24 08:19:53;;;;;;;7.00;5.90;;;;;;;21.92;61.41;99569.00;4942487;28;20265;-64
2023/06/24 08:22:19;;;;;;;7.57;5.90;;;;;;;21.89;61.84;99564.09;4937638;28;20239;-64
2023/06/24 08:24:46;;;;;;;9.03;6.27;;;;;;;21.96;62.21;99562.25;4937633;28;20634;-65
2023/06/24 08:27:12;;;;;;;9.13;5.77;;;;;;;22.10;62.11;99556.97;4943811;28;20234;-64
2023/06/24 08:29:40;;;;;;;11.97;5.97;;;;;;;22.12;62.92;99560.22;4939327;28;20286;-64
2023/06/24 08:32:07;;;;;;;7.70;5.60;;;;;;;22.26;61.11;99561.84;4944347;28;20297;-65
2023/06/24 08:34:34;;;;;;;11.67;6.03;;;;;;;22.27;62.44;99547.53;4941916;28;20219;-64
2023/06/24 08:37:01;;;;;;;7.50;5.43;;;;;;;22.44;61.27;99555.13;4944245;28;20368;-64
2023/06/24 08:39:28;;;;;;;9.03;5.53;;;;;;;22.59;61.53;99560.25;4938820;28;20230;-64
2023/06/24 08:41:55;;;;;;;8.03;5.80;;;;;;;22.62;62.37;99551.00;4943662;28;20240;-64
2023/06/24 08:44:21;;;;;;;6.43;5.63;;;;;;;22.67;61.74;99556.53;4947476;28;20236;-65
2023/06/24 08:46:49;;;;;;;7.57;5.73;;;;;;;22.70;60.87;99559.63;4955501;28;20290;-65
2023/06/24 08:49:25;;;;;;;8.33;5.57;;;;;;;22.79;60.91;99554.06;4943246;28;20235;-65
2023/06/24 08:52:00;;;;;;;6.00;5.20;;;;;;;22.96;60.27;99549.09;4943398;28;20252;-64
2023/06/24 08:54:27;;;;;;;6.70;4.87;;;;;;;23.00;59.53;99548.47;4942754;28;20232;-64
2023/06/24 08:56:53;;;;;;;7.37;5.03;;;;;;;23.07;59.65;99551.13;4946429;28;20226;-64
2023/06/24 08:59:20;;;;;;;6.67;4.80;;;;;;;23.18;59.05;99552.28;4954916;28;20240;-64
2023/06/24 09:01:49;;;;;;;5.40;4.83;;;;;;;23.30;59.28;99547.16;4941792;28;20337;-66
2023/06/24 09:04:15;;;;;;;7.07;4.90;;;;;;;23.32;59.75;99547.75;4944771;28;20313;-63
2023/06/24 09:06:42;;;;;;;6.10;5.10;;;;;;;23.40;58.46;99549.38;4940074;28;20296;-65
2023/06/24 09:09:19;;;;;;;11.07;5.43;;;;;;;23.40;59.70;99544.84;4945608;28;20248;-64
2023/06/24 09:11:52;;;;;;;5.20;4.70;;;;;;;23.64;57.69;99555.00;4938060;28;20237;-64
2023/06/24 09:14:18;;;;;;;8.87;4.97;;;;;;;23.63;57.51;99543.50;4941617;28;20244;-64
2023/06/24 09:16:53;;;;;;;7.47;5.03;;;;;;;23.55;57.51;99543.75;4941968;28;20247;-64
2023/06/24 09:19:23;;;;;;;8.10;5.30;;;;;;;23.74;56.49;99542.81;4946737;28;20592;-64
2023/06/24 09:21:51;;;;;;;6.53;4.90;;;;;;;23.56;56.85;99540.06;4942142;28;20621;-65
2023/06/24 09:24:18;;;;;;;6.37;4.93;;;;;;;23.77;54.60;99530.91;4947003;28;20240;-64
2023/06/24 09:26:45;;;;;;;8.47;4.63;;;;;;;23.80;52.98;99530.50;4943744;28;20304;-64
2023/06/24 09:29:13;;;;;;;6.23;4.40;;;;;;;23.79;52.05;99522.69;4942733;28;20232;-64
2023/06/24 09:31:48;;;;;;;4.20;3.80;;;;;;;23.95;51.91;99519.50;4941709;28;20237;-64
2023/06/24 09:34:16;;;;;;;6.17;4.00;;;;;;;23.94;50.84;99511.69;4943495;28;20233;-64
2023/06/24 09:36:44;;;;;;;6.63;4.10;;;;;;;23.69;52.33;99510.66;4943276;28;20630;-64
2023/06/24 09:39:11;;;;;;;5.97;4.57;;;;;;;23.38;51.51;99503.47;4944146;28;20319;-64
2023/06/24 09:41:41;;;;;;;5.30;4.43;;;;;;;23.33;50.98;99509.44;4939061;28;20233;-64
2023/06/24 09:44:09;;;;;;;5.13;4.33;;;;;;;23.16;50.74;99498.44;4941588;28;20232;-64
2023/06/24 09:47:01;;;;;;;5.83;4.20;;;;;;;23.34;50.85;99491.63;4940438;28;20711;-64
2023/06/24 09:49:29;;;;;;;5.10;4.10;;;;;;;23.38;49.90;99490.97;4932294;28;20683;-64
2023/06/24 09:51:57;;;;;;;5.07;4.40;;;;;;;23.43;49.41;99491.13;4944453;28;20237;-64
2023/06/24 09:54:27;;;;;;;5.63;3.77;;;;;;;23.54;48.24;99488.81;4936274;28;20233;-65
2023/06/24 09:56:55;;;;;;;4.57;3.90;;;;;;;23.82;48.04;99488.44;4938395;28;20238;-64
2023/06/24 09:59:22;;;;;;;6.87;3.83;;;;;;;24.13;47.50;99486.75;4945510;28;20254;-64
2023/06/24 10:01:53;;;;;;;4.77;3.83;;;;;;;24.31;46.82;99485.16;4942296;28;20240;-65
2023/06/24 10:04:21;;;;;;;4.73;3.87;;;;;;;24.34;46.90;99489.25;4944974;28;20226;-65
2023/06/24 10:06:50;;;;;;;6.83;3.70;;;;;;;24.30;47.43;99479.03;4944275;28;20251;-65
2023/06/24 10:09:17;;;;;;;5.00;3.90;;;;;;;24.65;46.19;99468.78;4945488;28;20746;-64
2023/06/24 10:11:45;;;;;;;4.07;3.37;;;;;;;24.69;43.16;99478.81;4943781;28;20740;-65
2023/06/24 10:14:11;;;;;;;4.40;3.50;;;;;;;24.91;40.94;99471.19;4946926;28;20316;-64
2023/06/24 10:16:38;;;;;;;4.20;3.80;;;;;;;25.01;44.72;99475.19;4938928;28;20751;-66
2023/06/24 10:19:06;;;;;;;4.77;3.50;;;;;;;25.22;44.10;99457.03;4948433;28;20240;-65
2023/06/24 10:21:57;;;;;;;6.10;3.90;;;;;;;25.36;43.26;99458.47;4944519;28;20236;-66
2023/06/24 10:24:31;;;;;;;4.00;3.60;;;;;;;25.49;43.55;99454.81;4940418;28;20224;-69
2023/06/24 10:27:06;;;;;;;4.23;3.23;;;;;;;25.48;40.27;99456.66;4946197;28;20238;-68
2023/06/24 10:29:34;;;;;;;3.93;3.33;;;;;;;25.39;42.98;99444.66;4942226;28;20223;-56
2023/06/24 10:32:03;;;;;;;3.57;3.27;;;;;;;25.54;40.68;99448.78;4941339;28;20243;-62
2023/06/24 10:34:33;;;;;;;4.57;3.30;;;;;;;25.69;42.49;99441.13;4944570;28;20244;-61
2023/06/24 10:37:02;;;;;;;5.00;3.60;;;;;;;25.84;41.45;99438.03;4944382;28;20321;-63
2023/06/24 10:39:39;;;;;;;3.80;3.47;;;;;;;25.90;39.81;99442.44;4938304;28;20779;-63
2023/06/24 10:42:41;;;;;;;4.05;3.65;;;;;;;26.00;39.51;99441.84;4945169;28;20793;-63
2023/06/24 10:45:19;;;;;;;4.60;3.30;;;;;;;26.07;38.60;99439.88;4865866;29;20232;-63
2023/06/24 10:47:47;;;;;;;5.70;3.50;;;;;;;26.03;38.32;99430.69;4930854;28;20294;-63
2023/06/24 10:50:16;;;;;;;4.77;3.30;;;;;;;26.01;38.24;99439.97;4942521;28;20238;-63
2023/06/24 10:52:45;;;;;;;3.70;3.20;;;;;;;26.05;38.03;99430.44;4937573;28;20251;-63
2023/06/24 10:55:15;;;;;;;3.50;3.10;;;;;;;26.15;38.47;99422.69;4944005;28;20242;-63
2023/06/24 10:57:41;;;;;;;4.10;3.17;;;;;;;26.21;37.76;99418.25;4941252;28;20292;-63
2023/06/24 11:00:09;;;;;;;3.23;2.80;;;;;;;26.00;36.90;99422.31;4943638;28;20317;-63
2023/06/24 11:02:36;;;;;;;7.23;3.47;;;;;;;25.84;37.41;99416.63;4940664;28;20230;-63
2023/06/24 11:05:04;;;;;;;3.70;3.30;;;;;;;26.03;37.11;99414.63;4945422;28;20238;-63
2023/06/24 11:07:34;;;;;;;8.80;3.27;;;;;;;26.03;36.62;99414.63;4942504;28;20231;-63
2023/06/24 11:10:05;;;;;;;3.13;2.80;;;;;;;26.15;35.27;99414.66;4946309;28;20286;-63
2023/06/24 11:12:33;;;;;;;4.27;3.33;;;;;;;26.22;37.63;99404.63;4932826;28;20231;-63
2023/06/24 11:15:01;;;;;;;7.90;3.07;;;;;;;26.45;37.45;99402.16;4934566;28;20635;-63
2023/06/24 11:17:28;;;;;;;4.33;2.80;;;;;;;26.56;35.92;99401.28;4939292;28;20238;-63
2023/06/24 11:19:56;;;;;;;6.67;3.33;;;;;;;26.52;34.69;99402.81;4944709;28;20227;-63
2023/06/24 11:22:23;;;;;;;5.50;3.40;;;;;;;26.47;34.85;99394.72;4951519;28;20291;-64
2023/06/24 11:24:51;;;;;;;3.17;2.87;;;;;;;26.50;35.83;99383.53;4941690;28;20229;-65
2023/06/24 11:27:25;;;;;;;3.80;3.10;;;;;;;26.44;35.36;99393.31;4941699;28;20621;-63
2023/06/24 11:29:52;;;;;;;3.60;2.83;;;;;;;26.65;35.96;99397.19;4940670;28;20246;-64
2023/06/24 11:32:19;;;;;;;3.50;2.90;;;;;;;26.60;34.19;99382.91;4941449;28;20238;-64
2023/06/24 11:34:47;;;;;;;3.33;3.03;;;;;;;26.38;33.35;99372.84;4936932;28;20235;-64
2023/06/24 11:37:15;;;;;;;3.90;2.87;;;;;;;26.57;34.38;99381.50;4945705;28;20231;-64
2023/06/24 11:39:42;;;;;;;3.30;2.90;;;;;;;26.73;34.45;99373.78;4941315;28;20612;-64
2023/06/24 11:42:10;;;;;;;4.43;3.10;;;;;;;26.68;33.59;99372.63;4941516;28;20293;-64